FIN7WG EFHK-EGLL
Flight info
| Callsign | FIN7WG |
|---|---|
| Flight time | N/A |
| Altitude | 40000 |
| Route | ADIVO Y365 POGOK/N0494F430 DCT TIPIX DCT UPGAS DCT TIPAN DCT WECOW DCT BINBO DCT AKOKO N866 BUKUT P7 BARMI |
| Aircraft | A359/H-SDE2E3GHIJ1J3J4J5LM1ORWXY/LB1D1 |
Departure
| Time | 2026-05-04 12:07 |
|---|---|
| Airport | Helsinki Vantaa Airport (EFHK) |
Arrival
| Time | N/A |
|---|---|
| Airport | London Heathrow Airport (EGLL) |
| Time | Latitude | Longitude | Altitude | Speed | Heading |
|---|---|---|---|---|---|
| 2026-05-04 11:45 | 60.31434 | 24.95977 | 168 ft | 0 kts | 343° |
| 2026-05-04 11:47 | 60.31425 | 24.95983 | 168 ft | 4 kts | 340° |
| 2026-05-04 11:47 | 60.31400 | 24.96005 | 168 ft | 4 kts | 330° |
| 2026-05-04 11:47 | 60.31377 | 24.96034 | 168 ft | 4 kts | 322° |
| 2026-05-04 11:47 | 60.31357 | 24.96069 | 168 ft | 4 kts | 315° |
| 2026-05-04 11:48 | 60.31339 | 24.96109 | 168 ft | 4 kts | 308° |
| 2026-05-04 11:48 | 60.31323 | 24.96153 | 168 ft | 4 kts | 303° |
| 2026-05-04 11:48 | 60.31309 | 24.96199 | 168 ft | 4 kts | 302° |
| 2026-05-04 11:48 | 60.31294 | 24.96240 | 168 ft | 2 kts | 317° |
| 2026-05-04 11:49 | 60.31294 | 24.96242 | 168 ft | 0 kts | 318° |
| 2026-05-04 11:57 | 60.31308 | 24.96206 | 168 ft | 5 kts | 295° |
| 2026-05-04 11:57 | 60.31242 | 24.96002 | 168 ft | 29 kts | 239° |
| 2026-05-04 11:57 | 60.31209 | 24.95705 | 168 ft | 21 kts | 234° |
| 2026-05-04 11:58 | 60.31203 | 24.95464 | 168 ft | 19 kts | 307° |
| 2026-05-04 11:58 | 60.31301 | 24.95265 | 168 ft | 21 kts | 318° |
| 2026-05-04 11:58 | 60.31342 | 24.95100 | 168 ft | 12 kts | 255° |
| 2026-05-04 11:58 | 60.31294 | 24.94954 | 168 ft | 14 kts | 229° |
| 2026-05-04 11:59 | 60.31261 | 24.94816 | 168 ft | 8 kts | 270° |
| 2026-05-04 11:59 | 60.31275 | 24.94738 | 168 ft | 5 kts | 312° |
| 2026-05-04 11:59 | 60.31292 | 24.94694 | 168 ft | 3 kts | 300° |
| 2026-05-04 11:59 | 60.31297 | 24.94667 | 168 ft | 1 kts | 284° |
| 2026-05-04 12:00 | 60.31297 | 24.94663 | 168 ft | 2 kts | 284° |
| 2026-05-04 12:00 | 60.31303 | 24.94574 | 168 ft | 8 kts | 273° |
| 2026-05-04 12:00 | 60.31277 | 24.94516 | 168 ft | 9 kts | 223° |
| 2026-05-04 12:00 | 60.31213 | 24.94380 | 168 ft | 17 kts | 227° |
| 2026-05-04 12:01 | 60.31115 | 24.94162 | 168 ft | 24 kts | 227° |
| 2026-05-04 12:01 | 60.31002 | 24.93913 | 168 ft | 26 kts | 234° |
| 2026-05-04 12:02 | 60.31745 | 24.92347 | 167 ft | 22 kts | 334° |
| 2026-05-04 12:03 | 60.31854 | 24.92421 | 167 ft | 15 kts | 43° |
| 2026-05-04 12:03 | 60.31924 | 24.92569 | 167 ft | 14 kts | 47° |
| 2026-05-04 12:03 | 60.31985 | 24.92703 | 167 ft | 12 kts | 47° |
| 2026-05-04 12:03 | 60.32040 | 24.92823 | 167 ft | 11 kts | 47° |
| 2026-05-04 12:04 | 60.32112 | 24.92980 | 167 ft | 20 kts | 47° |
| 2026-05-04 12:04 | 60.32225 | 24.93228 | 167 ft | 28 kts | 48° |
| 2026-05-04 12:04 | 60.32370 | 24.93553 | 167 ft | 34 kts | 47° |
| 2026-05-04 12:04 | 60.32544 | 24.93935 | 168 ft | 40 kts | 47° |
| 2026-05-04 12:05 | 60.32728 | 24.94337 | 168 ft | 32 kts | 47° |
| 2026-05-04 12:05 | 60.32885 | 24.94677 | 168 ft | 26 kts | 47° |
| 2026-05-04 12:05 | 60.32996 | 24.94720 | 168 ft | 18 kts | 323° |
| 2026-05-04 12:05 | 60.33102 | 24.94534 | 173 ft | 19 kts | 311° |
| 2026-05-04 12:06 | 60.33080 | 24.94321 | 181 ft | 19 kts | 231° |
| 2026-05-04 12:06 | 60.32833 | 24.93763 | 180 ft | 104 kts | 229° |
| 2026-05-04 12:06 | 60.32116 | 24.92204 | 224 ft | 193 kts | 228° |
| 2026-05-04 12:06 | 60.31100 | 24.89963 | 733 ft | 232 kts | 228° |
| 2026-05-04 12:07 | 60.29999 | 24.87532 | 1243 ft | 255 kts | 228° |
| 2026-05-04 12:07 | 60.28758 | 24.84839 | 2003 ft | 277 kts | 230° |
| 2026-05-04 12:07 | 60.27869 | 24.81386 | 3019 ft | 291 kts | 256° |
| 2026-05-04 12:07 | 60.27929 | 24.77224 | 3740 ft | 311 kts | 285° |
| 2026-05-04 12:08 | 60.28891 | 24.73341 | 4380 ft | 331 kts | 299° |
| 2026-05-04 12:08 | 60.29820 | 24.68883 | 4662 ft | 342 kts | 279° |
| 2026-05-04 12:08 | 60.29841 | 24.64213 | 4683 ft | 329 kts | 262° |
| 2026-05-04 12:08 | 60.29577 | 24.59658 | 4699 ft | 335 kts | 263° |
| 2026-05-04 12:09 | 60.29407 | 24.54945 | 5104 ft | 339 kts | 265° |
| 2026-05-04 12:09 | 60.29336 | 24.50196 | 5766 ft | 339 kts | 267° |
| 2026-05-04 12:09 | 60.29321 | 24.45496 | 6393 ft | 340 kts | 268° |
| 2026-05-04 12:09 | 60.29337 | 24.40726 | 6972 ft | 341 kts | 268° |
| 2026-05-04 12:10 | 60.29370 | 24.35944 | 7594 ft | 341 kts | 269° |
| 2026-05-04 12:10 | 60.29411 | 24.31178 | 8318 ft | 340 kts | 269° |
| 2026-05-04 12:10 | 60.29459 | 24.26400 | 9030 ft | 340 kts | 268° |
| 2026-05-04 12:10 | 60.29507 | 24.21633 | 9718 ft | 340 kts | 268° |
| 2026-05-04 12:11 | 60.29554 | 24.16850 | 10229 ft | 343 kts | 268° |
| 2026-05-04 12:11 | 60.29600 | 24.12012 | 10699 ft | 348 kts | 269° |
| 2026-05-04 12:11 | 60.29645 | 24.07161 | 11067 ft | 355 kts | 269° |
| 2026-05-04 12:11 | 60.29690 | 24.02172 | 11633 ft | 356 kts | 268° |
| 2026-05-04 12:12 | 60.29576 | 23.97205 | 12228 ft | 355 kts | 261° |
| 2026-05-04 12:12 | 60.29198 | 23.92289 | 12797 ft | 356 kts | 258° |
| 2026-05-04 12:12 | 60.28697 | 23.87397 | 13364 ft | 357 kts | 256° |
| 2026-05-04 12:12 | 60.28138 | 23.82498 | 13870 ft | 360 kts | 255° |
| 2026-05-04 12:13 | 60.27562 | 23.77580 | 14344 ft | 362 kts | 255° |
| 2026-05-04 12:14 | 60.23604 | 23.42342 | 17817 ft | 378 kts | 256° |
| 2026-05-04 12:15 | 60.23018 | 23.37101 | 18237 ft | 381 kts | 255° |
| 2026-05-04 12:15 | 60.22631 | 23.33649 | 18536 ft | 382 kts | 255° |
| 2026-05-04 12:15 | 60.21846 | 23.26673 | 19141 ft | 384 kts | 255° |
| 2026-05-04 12:15 | 60.21251 | 23.21423 | 19548 ft | 386 kts | 255° |
| 2026-05-04 12:16 | 60.20853 | 23.17922 | 19816 ft | 388 kts | 255° |
| 2026-05-04 12:16 | 60.20248 | 23.12623 | 20236 ft | 390 kts | 255° |
| 2026-05-04 12:16 | 60.19635 | 23.07277 | 20623 ft | 393 kts | 255° |
| 2026-05-04 12:16 | 60.19017 | 23.01908 | 21050 ft | 396 kts | 255° |
| 2026-05-04 12:17 | 60.18394 | 22.96516 | 21483 ft | 398 kts | 255° |
| 2026-05-04 12:17 | 60.17761 | 22.91071 | 21898 ft | 401 kts | 255° |
| 2026-05-04 12:17 | 60.17124 | 22.85612 | 22337 ft | 403 kts | 255° |
| 2026-05-04 12:17 | 60.16481 | 22.80114 | 22769 ft | 406 kts | 255° |
| 2026-05-04 12:18 | 60.15831 | 22.74575 | 23218 ft | 408 kts | 255° |
| 2026-05-04 12:18 | 60.15175 | 22.69008 | 23614 ft | 411 kts | 255° |
| 2026-05-04 12:18 | 60.14516 | 22.63424 | 24057 ft | 412 kts | 254° |
| 2026-05-04 12:18 | 60.13852 | 22.57818 | 24505 ft | 414 kts | 254° |
| 2026-05-04 12:19 | 60.13184 | 22.52184 | 25001 ft | 415 kts | 254° |
| 2026-05-04 12:19 | 60.12510 | 22.46552 | 25490 ft | 416 kts | 254° |
| 2026-05-04 12:19 | 60.11828 | 22.40891 | 25957 ft | 419 kts | 254° |
| 2026-05-04 12:19 | 60.11138 | 22.35193 | 26388 ft | 421 kts | 254° |
| 2026-05-04 12:20 | 60.10444 | 22.29481 | 26814 ft | 423 kts | 254° |
| 2026-05-04 12:20 | 60.09746 | 22.23748 | 27215 ft | 425 kts | 253° |
| 2026-05-04 12:20 | 60.09040 | 22.17974 | 27617 ft | 428 kts | 253° |
| 2026-05-04 12:20 | 60.08328 | 22.12160 | 28015 ft | 430 kts | 253° |
| 2026-05-04 12:21 | 60.07611 | 22.06328 | 28385 ft | 432 kts | 253° |
| 2026-05-04 12:21 | 60.06888 | 22.00470 | 28734 ft | 434 kts | 253° |
| 2026-05-04 12:21 | 60.06161 | 21.94605 | 29219 ft | 433 kts | 253° |
| 2026-05-04 12:21 | 60.05435 | 21.88766 | 29813 ft | 431 kts | 253° |
| 2026-05-04 12:22 | 60.04711 | 21.82973 | 30228 ft | 429 kts | 253° |
| 2026-05-04 12:22 | 60.03983 | 21.77173 | 30558 ft | 430 kts | 253° |
| 2026-05-04 12:22 | 60.03251 | 21.71370 | 30926 ft | 430 kts | 253° |
| 2026-05-04 12:22 | 60.02515 | 21.65567 | 31252 ft | 431 kts | 253° |
| 2026-05-04 12:23 | 60.01776 | 21.59756 | 31599 ft | 431 kts | 253° |
| 2026-05-04 12:23 | 60.01037 | 21.53959 | 31951 ft | 430 kts | 253° |
| 2026-05-04 12:23 | 60.00297 | 21.48183 | 32284 ft | 429 kts | 253° |
| 2026-05-04 12:23 | 59.99552 | 21.42409 | 32625 ft | 429 kts | 253° |
| 2026-05-04 12:24 | 59.98630 | 21.36756 | 32963 ft | 427 kts | 248° |
| 2026-05-04 12:24 | 59.97587 | 21.31217 | 33289 ft | 426 kts | 247° |
| 2026-05-04 12:24 | 59.96509 | 21.25699 | 33644 ft | 426 kts | 247° |
| 2026-05-04 12:24 | 59.95415 | 21.20215 | 33920 ft | 426 kts | 246° |
| 2026-05-04 12:25 | 59.94310 | 21.14732 | 34161 ft | 426 kts | 246° |
| 2026-05-04 12:25 | 59.93201 | 21.09248 | 34384 ft | 427 kts | 246° |
| 2026-05-04 12:25 | 59.92087 | 21.03745 | 34621 ft | 428 kts | 246° |
| 2026-05-04 12:25 | 59.90973 | 20.98243 | 34850 ft | 428 kts | 247° |
| 2026-05-04 12:26 | 59.89857 | 20.92741 | 35082 ft | 429 kts | 247° |
| 2026-05-04 12:26 | 59.88737 | 20.87226 | 35339 ft | 430 kts | 247° |
| 2026-05-04 12:26 | 59.87614 | 20.81707 | 35615 ft | 429 kts | 247° |
| 2026-05-04 12:26 | 59.86492 | 20.76207 | 35835 ft | 430 kts | 247° |
| 2026-05-04 12:27 | 59.85363 | 20.70687 | 36038 ft | 431 kts | 247° |
| 2026-05-04 12:27 | 59.84228 | 20.65156 | 36246 ft | 432 kts | 247° |
| 2026-05-04 12:27 | 59.83089 | 20.59620 | 36453 ft | 433 kts | 247° |
| 2026-05-04 12:27 | 59.81946 | 20.54083 | 36663 ft | 434 kts | 246° |
| 2026-05-04 12:28 | 59.80799 | 20.48538 | 36858 ft | 434 kts | 246° |
| 2026-05-04 12:28 | 59.79647 | 20.42987 | 37057 ft | 435 kts | 246° |
| 2026-05-04 12:28 | 59.78494 | 20.37443 | 37254 ft | 435 kts | 246° |
| 2026-05-04 12:28 | 59.77333 | 20.31883 | 37442 ft | 436 kts | 246° |
| 2026-05-04 12:29 | 59.76172 | 20.26329 | 37598 ft | 437 kts | 246° |
| 2026-05-04 12:29 | 59.75004 | 20.20762 | 37773 ft | 437 kts | 246° |
| 2026-05-04 12:29 | 59.73833 | 20.15196 | 37968 ft | 437 kts | 246° |
| 2026-05-04 12:29 | 59.72660 | 20.09633 | 38158 ft | 438 kts | 246° |
| 2026-05-04 12:30 | 59.71483 | 20.04069 | 38328 ft | 438 kts | 246° |
| 2026-05-04 12:30 | 59.70304 | 19.98507 | 38471 ft | 439 kts | 246° |
| 2026-05-04 12:30 | 59.67922 | 19.87321 | 38651 ft | 442 kts | 246° |
| 2026-05-04 12:31 | 59.66724 | 19.81718 | 38784 ft | 442 kts | 246° |
| 2026-05-04 12:31 | 59.65526 | 19.76128 | 38909 ft | 442 kts | 246° |
| 2026-05-04 12:31 | 59.64337 | 19.70598 | 39030 ft | 443 kts | 246° |
| 2026-05-04 12:31 | 59.63116 | 19.64932 | 39147 ft | 443 kts | 246° |
| 2026-05-04 12:32 | 59.61922 | 19.59406 | 39265 ft | 443 kts | 246° |
| 2026-05-04 12:32 | 59.59493 | 19.48213 | 39494 ft | 444 kts | 246° |
| 2026-05-04 12:33 | 59.57054 | 19.37034 | 39707 ft | 444 kts | 246° |
| 2026-05-04 12:33 | 59.55829 | 19.31438 | 39808 ft | 444 kts | 246° |
| 2026-05-04 12:33 | 59.54603 | 19.25853 | 39903 ft | 444 kts | 246° |
| 2026-05-04 12:33 | 59.53373 | 19.20270 | 40011 ft | 444 kts | 246° |
| 2026-05-04 12:34 | 59.52140 | 19.14686 | 40095 ft | 445 kts | 246° |
| 2026-05-04 12:34 | 59.49665 | 19.03519 | 40281 ft | 445 kts | 246° |
| 2026-05-04 12:35 | 59.47175 | 18.92345 | 40456 ft | 446 kts | 246° |
| 2026-05-04 12:35 | 59.44678 | 18.81196 | 40607 ft | 447 kts | 246° |
| 2026-05-04 12:36 | 59.42150 | 18.69951 | 40719 ft | 452 kts | 246° |
| 2026-05-04 12:36 | 59.39585 | 18.58605 | 40770 ft | 458 kts | 246° |
| 2026-05-04 12:37 | 59.36977 | 18.47140 | 40797 ft | 461 kts | 246° |
| 2026-05-04 12:37 | 59.34352 | 18.35670 | 40911 ft | 462 kts | 245° |
| 2026-05-04 12:37 | 59.33037 | 18.29948 | 41150 ft | 459 kts | 245° |
| 2026-05-04 12:38 | 59.31728 | 18.24267 | 41382 ft | 457 kts | 245° |
| 2026-05-04 12:38 | 59.30424 | 18.18625 | 41636 ft | 454 kts | 245° |
| 2026-05-04 12:38 | 59.29123 | 18.13007 | 41882 ft | 452 kts | 245° |
| 2026-05-04 12:38 | 59.27828 | 18.07430 | 42139 ft | 450 kts | 245° |
| 2026-05-04 12:39 | 59.26536 | 18.01881 | 42410 ft | 447 kts | 245° |
| 2026-05-04 12:39 | 59.25248 | 17.96364 | 42632 ft | 445 kts | 245° |
| 2026-05-04 12:39 | 59.23960 | 17.90860 | 42696 ft | 447 kts | 245° |
| 2026-05-04 12:40 | 59.21352 | 17.79758 | 42697 ft | 452 kts | 245° |
| 2026-05-04 12:40 | 59.18706 | 17.68555 | 42695 ft | 457 kts | 245° |
| 2026-05-04 12:41 | 59.16019 | 17.57235 | 42694 ft | 462 kts | 245° |
| 2026-05-04 12:41 | 59.13304 | 17.45858 | 42691 ft | 465 kts | 245° |
| 2026-05-04 12:42 | 59.10567 | 17.34447 | 42696 ft | 466 kts | 245° |
| 2026-05-04 12:42 | 59.07813 | 17.23029 | 42688 ft | 467 kts | 245° |
| 2026-05-04 12:43 | 59.05045 | 17.11609 | 42701 ft | 467 kts | 245° |
| 2026-05-04 12:43 | 59.02267 | 17.00213 | 42707 ft | 467 kts | 245° |
| 2026-05-04 12:44 | 58.99482 | 16.88844 | 42709 ft | 467 kts | 245° |
| 2026-05-04 12:44 | 58.96684 | 16.77479 | 42700 ft | 467 kts | 245° |
| 2026-05-04 12:45 | 58.93894 | 16.66205 | 42703 ft | 467 kts | 244° |
| 2026-05-04 12:45 | 58.91073 | 16.54869 | 42702 ft | 468 kts | 244° |
| 2026-05-04 12:46 | 58.88261 | 16.43541 | 42711 ft | 467 kts | 245° |
| 2026-05-04 12:46 | 58.85470 | 16.32181 | 42712 ft | 468 kts | 245° |
| 2026-05-04 12:47 | 58.82675 | 16.20861 | 42712 ft | 467 kts | 245° |
| 2026-05-04 12:47 | 58.79863 | 16.09552 | 42718 ft | 467 kts | 244° |
| 2026-05-04 12:48 | 58.77039 | 15.98271 | 42716 ft | 468 kts | 244° |
| 2026-05-04 12:48 | 58.74198 | 15.86982 | 42715 ft | 468 kts | 244° |
| 2026-05-04 12:49 | 58.71350 | 15.75722 | 42726 ft | 468 kts | 244° |
| 2026-05-04 12:49 | 58.68491 | 15.64475 | 42729 ft | 468 kts | 244° |
| 2026-05-04 12:50 | 58.65621 | 15.53240 | 42710 ft | 468 kts | 244° |
| 2026-05-04 12:50 | 58.62748 | 15.42048 | 42737 ft | 468 kts | 244° |
| 2026-05-04 12:51 | 58.59860 | 15.30858 | 42737 ft | 468 kts | 244° |
| 2026-05-04 12:51 | 58.56960 | 15.19678 | 42739 ft | 468 kts | 244° |
| 2026-05-04 12:52 | 58.54050 | 15.08513 | 42739 ft | 468 kts | 244° |
| 2026-05-04 12:52 | 58.51152 | 14.97448 | 42739 ft | 468 kts | 244° |
| 2026-05-04 12:53 | 58.48224 | 14.86326 | 42743 ft | 468 kts | 244° |
| 2026-05-04 12:53 | 58.45289 | 14.75230 | 42738 ft | 468 kts | 244° |
| 2026-05-04 12:54 | 58.42347 | 14.64166 | 42746 ft | 468 kts | 243° |
| 2026-05-04 12:54 | 58.39391 | 14.53102 | 42746 ft | 468 kts | 243° |
| 2026-05-04 12:55 | 58.36428 | 14.42064 | 42745 ft | 468 kts | 243° |
| 2026-05-04 12:55 | 58.33452 | 14.31032 | 42746 ft | 468 kts | 243° |
| 2026-05-04 12:56 | 58.30446 | 14.19946 | 42744 ft | 469 kts | 243° |
| 2026-05-04 12:56 | 58.27449 | 14.08943 | 42744 ft | 469 kts | 243° |
| 2026-05-04 12:57 | 58.24459 | 13.98022 | 42758 ft | 469 kts | 243° |
| 2026-05-04 12:57 | 58.21446 | 13.87066 | 42765 ft | 469 kts | 243° |
| 2026-05-04 12:58 | 58.18421 | 13.76124 | 42770 ft | 469 kts | 243° |
| 2026-05-04 12:58 | 58.15385 | 13.65192 | 42762 ft | 469 kts | 243° |
| 2026-05-04 12:59 | 58.12339 | 13.54274 | 42761 ft | 469 kts | 243° |
| 2026-05-04 12:59 | 58.09281 | 13.43367 | 42768 ft | 469 kts | 243° |
| 2026-05-04 13:00 | 58.06216 | 13.32489 | 42775 ft | 469 kts | 243° |
| 2026-05-04 13:00 | 58.03132 | 13.21596 | 42772 ft | 469 kts | 242° |
| 2026-05-04 13:01 | 58.00060 | 13.10792 | 42780 ft | 469 kts | 242° |
| 2026-05-04 13:01 | 57.96963 | 12.99955 | 42784 ft | 469 kts | 242° |
| 2026-05-04 13:02 | 57.93860 | 12.89144 | 42790 ft | 470 kts | 242° |
| 2026-05-04 13:02 | 57.90742 | 12.78332 | 42796 ft | 470 kts | 242° |
| 2026-05-04 13:03 | 57.88132 | 12.69323 | 42811 ft | 471 kts | 242° |
| 2026-05-04 13:03 | 57.84484 | 12.56787 | 42805 ft | 470 kts | 242° |
| 2026-05-04 13:04 | 57.81336 | 12.46024 | 42830 ft | 471 kts | 242° |
| 2026-05-04 13:04 | 57.78691 | 12.37021 | 42827 ft | 471 kts | 242° |
| 2026-05-04 13:05 | 57.75522 | 12.26277 | 42828 ft | 471 kts | 242° |
| 2026-05-04 13:05 | 57.72367 | 12.15632 | 42868 ft | 471 kts | 242° |
| 2026-05-04 13:06 | 57.69171 | 12.04897 | 42876 ft | 471 kts | 242° |
| 2026-05-04 13:06 | 57.65972 | 11.94200 | 42889 ft | 471 kts | 242° |
| 2026-05-04 13:07 | 57.62768 | 11.83533 | 42847 ft | 471 kts | 242° |
| 2026-05-04 13:07 | 57.59551 | 11.72877 | 42858 ft | 471 kts | 242° |
| 2026-05-04 13:08 | 57.56320 | 11.62221 | 42855 ft | 471 kts | 241° |
| 2026-05-04 13:08 | 57.53089 | 11.51611 | 42851 ft | 471 kts | 241° |
| 2026-05-04 13:09 | 57.49863 | 11.41069 | 42856 ft | 471 kts | 241° |
| 2026-05-04 13:09 | 57.46601 | 11.30453 | 42858 ft | 471 kts | 241° |
| 2026-05-04 13:10 | 57.43331 | 11.19864 | 42858 ft | 471 kts | 241° |
| 2026-05-04 13:10 | 57.40082 | 11.09385 | 42862 ft | 471 kts | 241° |
| 2026-05-04 13:11 | 57.36797 | 10.98839 | 42868 ft | 472 kts | 241° |
| 2026-05-04 13:11 | 57.33509 | 10.88332 | 42870 ft | 472 kts | 240° |
| 2026-05-04 13:12 | 57.30207 | 10.77825 | 42870 ft | 472 kts | 240° |
| 2026-05-04 13:12 | 57.26897 | 10.67341 | 42879 ft | 472 kts | 240° |
| 2026-05-04 13:13 | 57.23577 | 10.56870 | 42879 ft | 472 kts | 240° |
| 2026-05-04 13:13 | 57.20259 | 10.46452 | 42882 ft | 472 kts | 240° |
| 2026-05-04 13:14 | 57.16918 | 10.36009 | 42892 ft | 473 kts | 240° |
| 2026-05-04 13:14 | 57.13533 | 10.25473 | 42901 ft | 473 kts | 240° |
| 2026-05-04 13:15 | 57.10208 | 10.15171 | 42908 ft | 473 kts | 240° |
| 2026-05-04 13:15 | 57.06835 | 10.04764 | 42909 ft | 473 kts | 240° |
| 2026-05-04 13:16 | 57.03370 | 9.94122 | 42912 ft | 474 kts | 240° |
| 2026-05-04 13:16 | 57.00052 | 9.83975 | 42911 ft | 474 kts | 240° |
| 2026-05-04 13:17 | 56.96663 | 9.73654 | 42913 ft | 474 kts | 240° |
| 2026-05-04 13:17 | 56.93252 | 9.63313 | 42928 ft | 475 kts | 240° |
| 2026-05-04 13:18 | 56.89807 | 9.52912 | 42934 ft | 475 kts | 239° |
| 2026-05-04 13:18 | 56.86371 | 9.42585 | 42933 ft | 475 kts | 239° |
| 2026-05-04 13:19 | 56.82925 | 9.32273 | 42943 ft | 476 kts | 239° |
| 2026-05-04 13:19 | 56.79495 | 9.22051 | 42947 ft | 476 kts | 239° |
| 2026-05-04 13:20 | 56.76026 | 9.11759 | 42949 ft | 476 kts | 239° |
| 2026-05-04 13:20 | 56.72553 | 9.01495 | 42958 ft | 476 kts | 239° |
| 2026-05-04 13:21 | 56.69070 | 8.91249 | 42953 ft | 476 kts | 239° |
| 2026-05-04 13:21 | 56.65573 | 8.81007 | 42963 ft | 477 kts | 239° |
| 2026-05-04 13:22 | 56.62069 | 8.70786 | 42967 ft | 477 kts | 239° |
| 2026-05-04 13:22 | 56.58552 | 8.60568 | 42968 ft | 477 kts | 239° |
| 2026-05-04 13:23 | 56.55025 | 8.50368 | 42962 ft | 477 kts | 239° |
| 2026-05-04 13:23 | 56.51488 | 8.40181 | 42980 ft | 478 kts | 238° |
| 2026-05-04 13:24 | 56.47943 | 8.30013 | 42985 ft | 478 kts | 238° |
| 2026-05-04 13:24 | 56.44387 | 8.19856 | 42985 ft | 478 kts | 238° |
| 2026-05-04 13:25 | 56.39032 | 8.04645 | 42994 ft | 478 kts | 238° |
| 2026-05-04 13:25 | 56.35451 | 7.94524 | 42993 ft | 479 kts | 238° |
| 2026-05-04 13:26 | 56.31860 | 7.84415 | 42976 ft | 479 kts | 238° |
| 2026-05-04 13:26 | 56.28286 | 7.74398 | 42997 ft | 479 kts | 238° |
| 2026-05-04 13:27 | 56.24674 | 7.64316 | 42999 ft | 479 kts | 238° |
| 2026-05-04 13:27 | 56.21052 | 7.54250 | 42998 ft | 480 kts | 238° |
| 2026-05-04 13:28 | 56.17423 | 7.44204 | 43004 ft | 480 kts | 238° |
| 2026-05-04 13:28 | 56.13780 | 7.34160 | 43005 ft | 480 kts | 238° |
| 2026-05-04 13:29 | 56.10125 | 7.24127 | 43007 ft | 480 kts | 238° |
| 2026-05-04 13:29 | 56.06467 | 7.14124 | 43006 ft | 480 kts | 237° |
| 2026-05-04 13:30 | 56.02797 | 7.04132 | 43012 ft | 481 kts | 237° |
| 2026-05-04 13:30 | 55.99121 | 6.94162 | 43012 ft | 481 kts | 237° |
| 2026-05-04 13:31 | 55.95431 | 6.84199 | 43013 ft | 481 kts | 237° |
| 2026-05-04 13:31 | 55.91736 | 6.74258 | 43015 ft | 481 kts | 237° |
| 2026-05-04 13:32 | 55.88025 | 6.64318 | 43015 ft | 481 kts | 237° |
| 2026-05-04 13:32 | 55.84308 | 6.54403 | 43021 ft | 482 kts | 237° |
| 2026-05-04 13:33 | 55.80583 | 6.44504 | 43020 ft | 482 kts | 237° |
| 2026-05-04 13:33 | 55.76847 | 6.34617 | 43021 ft | 482 kts | 237° |
| 2026-05-04 13:34 | 55.73106 | 6.24756 | 43024 ft | 482 kts | 237° |
| 2026-05-04 13:34 | 55.69354 | 6.14908 | 43029 ft | 482 kts | 237° |
| 2026-05-04 13:35 | 55.63708 | 6.00159 | 43009 ft | 482 kts | 237° |
| 2026-05-04 13:36 | 55.59931 | 5.90344 | 43031 ft | 483 kts | 237° |
| 2026-05-04 13:36 | 55.56167 | 5.80599 | 43031 ft | 483 kts | 236° |
| 2026-05-04 13:37 | 55.52371 | 5.70812 | 43033 ft | 483 kts | 236° |
| 2026-05-04 13:37 | 55.48566 | 5.61041 | 43037 ft | 483 kts | 236° |
| 2026-05-04 13:38 | 55.44751 | 5.51283 | 43034 ft | 484 kts | 236° |
| 2026-05-04 13:38 | 55.40928 | 5.41541 | 43034 ft | 484 kts | 236° |
| 2026-05-04 13:39 | 55.37094 | 5.31810 | 43027 ft | 484 kts | 236° |
| 2026-05-04 13:39 | 55.33246 | 5.22084 | 43029 ft | 485 kts | 236° |
| 2026-05-04 13:40 | 55.29391 | 5.12378 | 43027 ft | 485 kts | 236° |
| 2026-05-04 13:40 | 55.25298 | 5.02995 | 43049 ft | 486 kts | 227° |
| 2026-05-04 13:41 | 55.19954 | 4.95738 | 43035 ft | 489 kts | 212° |
| 2026-05-04 13:41 | 55.14004 | 4.89936 | 43042 ft | 490 kts | 210° |
| 2026-05-04 13:42 | 55.04949 | 4.81595 | 43041 ft | 491 kts | 210° |
| 2026-05-04 13:42 | 54.98922 | 4.76009 | 43035 ft | 491 kts | 210° |
| 2026-05-04 13:43 | 54.92902 | 4.70405 | 43039 ft | 491 kts | 210° |
| 2026-05-04 13:43 | 54.86923 | 4.64846 | 43038 ft | 490 kts | 210° |
| 2026-05-04 13:44 | 54.80864 | 4.59235 | 43041 ft | 490 kts | 210° |
| 2026-05-04 13:44 | 54.74887 | 4.53721 | 43037 ft | 490 kts | 210° |
| 2026-05-04 13:45 | 54.68865 | 4.48186 | 43041 ft | 490 kts | 209° |
| 2026-05-04 13:45 | 54.62842 | 4.42668 | 43038 ft | 489 kts | 209° |
| 2026-05-04 13:46 | 54.56829 | 4.37169 | 43040 ft | 489 kts | 209° |
| 2026-05-04 13:46 | 54.50810 | 4.31692 | 43041 ft | 490 kts | 209° |
| 2026-05-04 13:47 | 54.44773 | 4.26221 | 43041 ft | 491 kts | 209° |
| 2026-05-04 13:47 | 54.38737 | 4.20768 | 43035 ft | 490 kts | 209° |
| 2026-05-04 13:48 | 54.32695 | 4.15325 | 43041 ft | 490 kts | 209° |
| 2026-05-04 13:48 | 54.26651 | 4.09898 | 43038 ft | 490 kts | 209° |
| 2026-05-04 13:49 | 54.20614 | 4.04495 | 43039 ft | 490 kts | 209° |
| 2026-05-04 13:49 | 54.14560 | 3.99095 | 43036 ft | 490 kts | 209° |
| 2026-05-04 13:50 | 54.08509 | 3.93716 | 43037 ft | 491 kts | 208° |
| 2026-05-04 13:50 | 54.02498 | 3.88389 | 43034 ft | 491 kts | 208° |
| 2026-05-04 13:51 | 53.96437 | 3.83035 | 43042 ft | 491 kts | 208° |
| 2026-05-04 13:51 | 53.90382 | 3.77705 | 43035 ft | 490 kts | 208° |
| 2026-05-04 13:52 | 53.81295 | 3.69741 | 43044 ft | 490 kts | 208° |
| 2026-05-04 13:53 | 53.75234 | 3.64451 | 43050 ft | 490 kts | 208° |
| 2026-05-04 13:53 | 53.69164 | 3.59169 | 43042 ft | 491 kts | 208° |
| 2026-05-04 13:54 | 53.60050 | 3.51270 | 43041 ft | 491 kts | 208° |
| 2026-05-04 13:55 | 53.51955 | 3.44287 | 43039 ft | 491 kts | 208° |
| 2026-05-04 13:55 | 53.42824 | 3.36447 | 43044 ft | 491 kts | 208° |
| 2026-05-04 13:56 | 53.36744 | 3.31240 | 43032 ft | 491 kts | 208° |
| 2026-05-04 13:57 | 53.27598 | 3.23453 | 43020 ft | 492 kts | 208° |
| 2026-05-04 13:58 | 53.15400 | 3.13126 | 43017 ft | 491 kts | 208° |
| 2026-05-04 13:58 | 53.06253 | 3.05413 | 43017 ft | 491 kts | 208° |
| 2026-05-04 13:59 | 53.00185 | 3.00328 | 43028 ft | 492 kts | 207° |
| 2026-05-04 14:00 | 52.91037 | 2.92696 | 42777 ft | 488 kts | 207° |
| 2026-05-04 14:00 | 52.85051 | 2.87718 | 42402 ft | 472 kts | 207° |
| 2026-05-04 14:00 | 52.82151 | 2.85310 | 42141 ft | 462 kts | 207° |
| 2026-05-04 14:01 | 52.79309 | 2.82952 | 41892 ft | 452 kts | 207° |
| 2026-05-04 14:01 | 52.76527 | 2.80648 | 41679 ft | 443 kts | 207° |
| 2026-05-04 14:01 | 52.71133 | 2.76189 | 41212 ft | 424 kts | 207° |
| 2026-05-04 14:02 | 52.68520 | 2.74034 | 40997 ft | 415 kts | 207° |
| 2026-05-04 14:02 | 52.65957 | 2.71922 | 40599 ft | 411 kts | 207° |
| 2026-05-04 14:02 | 52.63386 | 2.69805 | 39897 ft | 416 kts | 207° |
| 2026-05-04 14:02 | 52.60774 | 2.67659 | 39021 ft | 425 kts | 207° |
| 2026-05-04 14:03 | 52.58093 | 2.65459 | 37995 ft | 435 kts | 207° |
| 2026-05-04 14:03 | 52.55403 | 2.63079 | 36965 ft | 442 kts | 212° |
| 2026-05-04 14:03 | 52.52863 | 2.60204 | 36051 ft | 446 kts | 217° |
| 2026-05-04 14:03 | 52.50375 | 2.57069 | 34938 ft | 454 kts | 218° |
| 2026-05-04 14:04 | 52.45372 | 2.50615 | 32866 ft | 459 kts | 218° |
| 2026-05-04 14:04 | 52.42853 | 2.47364 | 31700 ft | 463 kts | 218° |
| 2026-05-04 14:04 | 52.40311 | 2.44085 | 30564 ft | 467 kts | 218° |
| 2026-05-04 14:05 | 52.35165 | 2.37464 | 28136 ft | 472 kts | 219° |
| 2026-05-04 14:05 | 52.32587 | 2.34156 | 27211 ft | 469 kts | 219° |
| 2026-05-04 14:05 | 52.30040 | 2.30890 | 26437 ft | 463 kts | 219° |
| 2026-05-04 14:06 | 52.27518 | 2.27663 | 25698 ft | 457 kts | 219° |
| 2026-05-04 14:06 | 52.25043 | 2.24498 | 25216 ft | 447 kts | 219° |
| 2026-05-04 14:06 | 52.22638 | 2.21429 | 25031 ft | 430 kts | 219° |
| 2026-05-04 14:06 | 52.20333 | 2.18494 | 25012 ft | 411 kts | 219° |
| 2026-05-04 14:07 | 52.18140 | 2.15690 | 25011 ft | 392 kts | 220° |
| 2026-05-04 14:07 | 52.16200 | 2.12728 | 25009 ft | 373 kts | 228° |
| 2026-05-04 14:07 | 52.14666 | 2.09455 | 25008 ft | 356 kts | 238° |
| 2026-05-04 14:07 | 52.13564 | 2.05984 | 25009 ft | 341 kts | 246° |
| 2026-05-04 14:08 | 52.12657 | 2.02480 | 25009 ft | 326 kts | 247° |
| 2026-05-04 14:08 | 52.11824 | 1.99141 | 25007 ft | 311 kts | 247° |
| 2026-05-04 14:08 | 52.11033 | 1.95949 | 25013 ft | 297 kts | 247° |
| 2026-05-04 14:08 | 52.10278 | 1.92899 | 25009 ft | 284 kts | 247° |
| 2026-05-04 14:09 | 52.08846 | 1.87121 | 24562 ft | 276 kts | 247° |
| 2026-05-04 14:09 | 52.08122 | 1.84203 | 24138 ft | 279 kts | 247° |
| 2026-05-04 14:10 | 52.06678 | 1.78392 | 23420 ft | 280 kts | 248° |
| 2026-05-04 14:10 | 52.05930 | 1.75384 | 22792 ft | 286 kts | 248° |
| 2026-05-04 14:10 | 52.05181 | 1.72373 | 22275 ft | 288 kts | 248° |
| 2026-05-04 14:10 | 52.04431 | 1.69362 | 21848 ft | 288 kts | 247° |
| 2026-05-04 14:11 | 52.03679 | 1.66350 | 21433 ft | 287 kts | 247° |
| 2026-05-04 14:11 | 52.02176 | 1.60344 | 20583 ft | 287 kts | 247° |
| 2026-05-04 14:11 | 52.01423 | 1.57341 | 20195 ft | 286 kts | 247° |
| 2026-05-04 14:12 | 52.00674 | 1.54357 | 19817 ft | 285 kts | 247° |
| 2026-05-04 14:12 | 51.99926 | 1.51381 | 19451 ft | 284 kts | 247° |
| 2026-05-04 14:12 | 51.98396 | 1.45313 | 18209 ft | 301 kts | 246° |
| 2026-05-04 14:13 | 51.97586 | 1.42113 | 17417 ft | 312 kts | 246° |
| 2026-05-04 14:13 | 51.96751 | 1.38813 | 16632 ft | 321 kts | 247° |
| 2026-05-04 14:13 | 51.95889 | 1.35414 | 15884 ft | 330 kts | 247° |
| 2026-05-04 14:13 | 51.95011 | 1.31952 | 15127 ft | 336 kts | 247° |
| 2026-05-04 14:14 | 51.94115 | 1.28424 | 14396 ft | 341 kts | 247° |
| 2026-05-04 14:14 | 51.92287 | 1.21246 | 12877 ft | 347 kts | 248° |
| 2026-05-04 14:14 | 51.91363 | 1.17623 | 12095 ft | 349 kts | 248° |
| 2026-05-04 14:15 | 51.89507 | 1.10361 | 10601 ft | 349 kts | 248° |
| 2026-05-04 14:15 | 51.87649 | 1.03124 | 9069 ft | 347 kts | 248° |
| 2026-05-04 14:16 | 51.85811 | 0.95983 | 7578 ft | 342 kts | 247° |
| 2026-05-04 14:16 | 51.84911 | 0.92493 | 7149 ft | 331 kts | 247° |
| 2026-05-04 14:17 | 51.83280 | 0.86186 | 7006 ft | 290 kts | 247° |
| 2026-05-04 14:17 | 51.82533 | 0.83306 | 7002 ft | 271 kts | 247° |
| 2026-05-04 14:17 | 51.81203 | 0.78181 | 7004 ft | 237 kts | 246° |
| 2026-05-04 14:18 | 51.80809 | 0.76668 | 7001 ft | 228 kts | 246° |
| 2026-05-04 14:18 | 51.79698 | 0.72413 | 7011 ft | 230 kts | 247° |
| 2026-05-04 14:19 | 51.78590 | 0.68190 | 7008 ft | 219 kts | 247° |
| 2026-05-04 14:19 | 51.78048 | 0.66117 | 7005 ft | 214 kts | 247° |
| 2026-05-04 14:19 | 51.77518 | 0.64089 | 7007 ft | 207 kts | 247° |
| 2026-05-04 14:19 | 51.76970 | 0.61987 | 7007 ft | 201 kts | 247° |
| 2026-05-04 14:20 | 51.76466 | 0.60066 | 7004 ft | 195 kts | 247° |
| 2026-05-04 14:20 | 51.75949 | 0.58098 | 7011 ft | 189 kts | 247° |
| 2026-05-04 14:20 | 51.75455 | 0.56216 | 7006 ft | 184 kts | 247° |
| 2026-05-04 14:21 | 51.74521 | 0.52654 | 7032 ft | 201 kts | 247° |
| 2026-05-04 14:21 | 51.74060 | 0.50886 | 7016 ft | 203 kts | 247° |
| 2026-05-04 14:21 | 51.73526 | 0.48843 | 7015 ft | 202 kts | 247° |
| 2026-05-04 14:21 | 51.72996 | 0.46825 | 7034 ft | 202 kts | 246° |
| 2026-05-04 14:22 | 51.72533 | 0.45066 | 7012 ft | 202 kts | 246° |
| 2026-05-04 14:22 | 51.71986 | 0.42993 | 7032 ft | 203 kts | 246° |
| 2026-05-04 14:22 | 51.71436 | 0.40910 | 7013 ft | 201 kts | 246° |
| 2026-05-04 14:22 | 51.70909 | 0.38918 | 7013 ft | 201 kts | 246° |
| 2026-05-04 14:23 | 51.69816 | 0.34787 | 7013 ft | 200 kts | 246° |
| 2026-05-04 14:23 | 51.69269 | 0.32726 | 7013 ft | 200 kts | 246° |
| 2026-05-04 14:23 | 51.68724 | 0.30668 | 7027 ft | 202 kts | 246° |
| 2026-05-04 14:24 | 51.68176 | 0.28604 | 7013 ft | 201 kts | 246° |
| 2026-05-04 14:24 | 51.67625 | 0.26534 | 7013 ft | 202 kts | 246° |
| 2026-05-04 14:24 | 51.67070 | 0.24449 | 7014 ft | 202 kts | 246° |
| 2026-05-04 14:24 | 51.66526 | 0.22405 | 7011 ft | 202 kts | 246° |
| 2026-05-04 14:25 | 51.65987 | 0.20380 | 7011 ft | 200 kts | 246° |
| 2026-05-04 14:25 | 51.64878 | 0.16227 | 7016 ft | 200 kts | 246° |
| 2026-05-04 14:25 | 51.64282 | 0.14312 | 7015 ft | 200 kts | 236° |
| 2026-05-04 14:26 | 51.63475 | 0.12653 | 7013 ft | 200 kts | 229° |
| 2026-05-04 14:26 | 51.62516 | 0.10909 | 7020 ft | 202 kts | 229° |
| 2026-05-04 14:26 | 51.61574 | 0.09236 | 7039 ft | 202 kts | 228° |
| 2026-05-04 14:26 | 51.60625 | 0.07567 | 7011 ft | 200 kts | 227° |
| 2026-05-04 14:27 | 51.59716 | 0.05983 | 6817 ft | 198 kts | 227° |
| 2026-05-04 14:27 | 51.58765 | 0.04332 | 6624 ft | 198 kts | 227° |
| 2026-05-04 14:27 | 51.57829 | 0.02712 | 6395 ft | 200 kts | 227° |
| 2026-05-04 14:27 | 51.56887 | 0.01086 | 6215 ft | 198 kts | 227° |
| 2026-05-04 14:28 | 51.55752 | -0.00178 | 5908 ft | 205 kts | 200° |
| 2026-05-04 14:28 | 51.54406 | -0.00929 | 5661 ft | 205 kts | 207° |
| 2026-05-04 14:28 | 51.53326 | -0.02397 | 5432 ft | 203 kts | 231° |
| 2026-05-04 14:28 | 51.52485 | -0.04139 | 5313 ft | 197 kts | 233° |
| 2026-05-04 14:29 | 51.50789 | -0.07754 | 5119 ft | 207 kts | 233° |
| 2026-05-04 14:29 | 51.49079 | -0.11389 | 4668 ft | 201 kts | 232° |
| 2026-05-04 14:30 | 51.48259 | -0.13125 | 4436 ft | 197 kts | 232° |
| 2026-05-04 14:30 | 51.47418 | -0.14899 | 4181 ft | 196 kts | 232° |
| 2026-05-04 14:30 | 51.46495 | -0.18866 | 3598 ft | 193 kts | 270° |
| 2026-05-04 14:31 | 51.46503 | -0.20937 | 3481 ft | 174 kts | 271° |
| 2026-05-04 14:31 | 51.46522 | -0.24522 | 3502 ft | 164 kts | 270° |
| 2026-05-04 14:32 | 51.46470 | -0.28143 | 3260 ft | 173 kts | 266° |
| 2026-05-04 14:32 | 51.46325 | -0.30080 | 3103 ft | 176 kts | 263° |
| 2026-05-04 14:32 | 51.46242 | -0.31987 | 2945 ft | 170 kts | 276° |
| 2026-05-04 14:32 | 51.46347 | -0.33873 | 2594 ft | 179 kts | 276° |
| 2026-05-04 14:33 | 51.46424 | -0.35990 | 2208 ft | 192 kts | 273° |
| 2026-05-04 14:33 | 51.46448 | -0.38041 | 1641 ft | 193 kts | 270° |
| 2026-05-04 14:33 | 51.46452 | -0.40155 | 987 ft | 197 kts | 271° |
| 2026-05-04 14:33 | 51.46473 | -0.42085 | 389 ft | 198 kts | 271° |
| 2026-05-04 14:34 | 51.46493 | -0.43790 | 163 ft | 186 kts | 270° |
| 2026-05-04 14:34 | 51.46487 | -0.44335 | 101 ft | 183 kts | 270° |
| 2026-05-04 14:34 | 51.46498 | -0.45064 | 98 ft | 174 kts | 274° |
| 2026-05-04 14:35 | 51.46541 | -0.45800 | 98 ft | 168 kts | 278° |